createdAt,value
2023-04-13T00:01:16.111Z,98026.50
2023-04-13T00:03:42.836Z,98024.63
2023-04-13T00:06:11.245Z,98025.13
2023-04-13T00:08:43.013Z,98023.81
2023-04-13T00:11:10.282Z,98021.13
2023-04-13T00:13:44.538Z,98021.66
2023-04-13T00:16:12.616Z,98021.38
2023-04-13T00:18:40.109Z,98024.31
2023-04-13T00:21:11.034Z,98026.97
2023-04-13T00:23:37.960Z,98030.75
2023-04-13T00:26:11.652Z,98034.19
2023-04-13T00:28:38.591Z,98029.69
2023-04-13T00:31:08.334Z,98031.41
2023-04-13T00:33:35.127Z,98031.94
2023-04-13T00:36:02.762Z,98034.94
2023-04-13T00:38:29.952Z,98032.81
2023-04-13T00:40:56.728Z,98032.56
2023-04-13T00:43:23.886Z,98029.34
2023-04-13T00:45:50.835Z,98022.41
2023-04-13T00:48:18.552Z,98020.00
2023-04-13T00:50:48.498Z,98025.00
2023-04-13T00:53:16.515Z,98015.34
2023-04-13T00:55:44.023Z,98024.50
2023-04-13T00:58:11.055Z,98018.53
2023-04-13T01:00:43.413Z,98018.25
2023-04-13T01:03:10.700Z,98028.75
2023-04-13T01:05:50.727Z,98027.94
2023-04-13T01:08:38.760Z,98026.00
2023-04-13T01:11:12.813Z,98028.75
2023-04-13T01:13:58.960Z,98028.47
2023-04-13T01:16:31.118Z,98031.72
2023-04-13T01:18:58.613Z,98035.72
2023-04-13T01:21:32.385Z,98040.59
2023-04-13T01:24:36.252Z,98033.63
2023-04-13T01:27:35.129Z,98031.28
2023-04-13T01:30:03.184Z,98023.19
2023-04-13T01:32:30.896Z,98027.50
2023-04-13T01:34:57.656Z,98038.09
2023-04-13T01:37:25.901Z,98035.75
2023-04-13T01:40:02.077Z,98032.50
2023-04-13T01:42:40.768Z,98032.75
2023-04-13T01:45:11.646Z,98033.75
2023-04-13T01:47:48.726Z,98036.75
2023-04-13T01:50:52.151Z,98034.13
2023-04-13T01:53:39.644Z,98038.13
2023-04-13T01:56:09.291Z,98032.91
2023-04-13T01:58:36.768Z,98033.53
2023-04-13T02:01:14.574Z,98037.78
2023-04-13T02:03:46.413Z,98035.88
2023-04-13T02:06:13.922Z,98053.66
2023-04-13T02:08:42.588Z,98089.69
2023-04-13T02:11:10.264Z,98086.22
2023-04-13T02:13:36.981Z,98092.66
2023-04-13T02:16:10.345Z,98097.47
2023-04-13T02:18:37.227Z,98089.41
2023-04-13T02:21:09.753Z,98090.78
2023-04-13T02:23:37.483Z,98088.09
2023-04-13T02:26:09.503Z,98089.16
2023-04-13T02:28:38.580Z,98090.44
2023-04-13T02:31:07.158Z,98087.47
2023-04-13T02:33:36.098Z,98095.31
2023-04-13T02:36:04.079Z,98099.84
2023-04-13T02:38:37.487Z,98106.25
2023-04-13T02:41:23.247Z,98098.38
2023-04-13T02:43:52.504Z,98105.69
2023-04-13T02:46:28.058Z,98108.22
2023-04-13T02:49:04.014Z,98109.75
2023-04-13T02:51:42.500Z,98106.53
2023-04-13T02:54:11.826Z,98106.78
2023-04-13T02:56:44.578Z,98114.59
2023-04-13T02:59:11.400Z,98105.31
2023-04-13T03:01:42.216Z,98118.16
2023-04-13T03:04:11.821Z,98113.88
2023-04-13T03:06:38.518Z,98117.69
2023-04-13T03:09:05.748Z,98115.31
2023-04-13T03:11:44.722Z,98121.22
2023-04-13T03:14:21.857Z,98129.28
2023-04-13T03:16:54.747Z,98127.13
2023-04-13T03:19:29.180Z,98134.56
2023-04-13T03:21:55.993Z,98139.97
2023-04-13T03:24:28.523Z,98138.78
2023-04-13T03:27:00.743Z,98150.78
2023-04-13T03:29:34.852Z,98151.41
2023-04-13T03:32:05.680Z,98148.44
2023-04-13T03:34:43.937Z,98143.31
2023-04-13T03:37:12.618Z,98149.47
2023-04-13T03:39:44.332Z,98148.88
2023-04-13T03:42:16.687Z,98152.06
2023-04-13T03:44:51.657Z,98149.09
2023-04-13T03:47:18.542Z,98157.94
2023-04-13T03:49:49.944Z,98163.13
2023-04-13T03:52:18.248Z,98162.31
2023-04-13T03:54:52.240Z,98156.66
2023-04-13T03:57:19.221Z,98165.31
2023-04-13T03:59:49.265Z,98163.44
2023-04-13T04:02:25.390Z,98176.56
2023-04-13T04:04:52.314Z,98167.09
2023-04-13T04:07:23.739Z,98168.78
2023-04-13T04:09:51.381Z,98170.25
2023-04-13T04:12:23.214Z,98172.34
2023-04-13T04:14:50.191Z,98180.16
2023-04-13T04:17:22.944Z,98186.22
2023-04-13T04:19:53.410Z,98185.31
2023-04-13T04:22:29.975Z,98189.28
2023-04-13T04:25:01.908Z,98188.47
2023-04-13T04:27:31.571Z,98188.38
2023-04-13T04:30:04.556Z,98182.31
2023-04-13T04:32:57.595Z,98179.16
2023-04-13T04:35:35.618Z,98185.38
2023-04-13T04:38:09.263Z,98175.28
2023-04-13T04:40:38.073Z,98176.91
2023-04-13T04:43:06.715Z,98176.97
2023-04-13T04:45:57.984Z,98179.41
2023-04-13T04:48:27.093Z,98172.94
2023-04-13T04:50:58.108Z,98186.69
2023-04-13T04:53:29.004Z,98195.44
2023-04-13T04:55:56.274Z,98193.25
2023-04-13T04:58:45.011Z,98196.16
2023-04-13T05:01:12.912Z,98197.53
2023-04-13T05:03:40.239Z,98205.56
2023-04-13T05:06:25.334Z,98202.72
2023-04-13T05:08:53.085Z,98207.09
2023-04-13T05:11:20.653Z,98210.63
2023-04-13T05:13:51.116Z,98210.94
2023-04-13T05:16:21.830Z,98218.41
2023-04-13T05:18:50.507Z,98220.03
2023-04-13T05:21:30.993Z,98220.69
2023-04-13T05:23:59.950Z,98219.13
2023-04-13T05:26:29.127Z,98223.19
2023-04-13T05:28:58.592Z,98228.13
2023-04-13T05:31:33.987Z,98233.06
2023-04-13T05:34:01.714Z,98236.63
2023-04-13T05:36:32.355Z,98244.16
2023-04-13T05:39:04.581Z,98242.69
2023-04-13T05:41:33.943Z,98240.03
2023-04-13T05:44:08.269Z,98247.16
2023-04-13T05:46:37.059Z,98246.34
2023-04-13T05:49:05.635Z,98253.03
2023-04-13T05:51:36.497Z,98262.38
2023-04-13T05:54:03.428Z,98271.66
2023-04-13T05:56:31.018Z,98277.84
2023-04-13T05:59:01.242Z,98279.22
2023-04-13T06:01:30.128Z,98287.78
2023-04-13T06:03:57.107Z,98292.25
2023-04-13T06:06:27.657Z,98285.84
2023-04-13T06:08:54.418Z,98297.84
2023-04-13T06:11:24.633Z,98298.22
2023-04-13T06:13:51.517Z,98302.66
2023-04-13T06:16:19.049Z,98303.84
2023-04-13T06:18:45.988Z,98305.03
2023-04-13T06:21:12.616Z,98305.00
2023-04-13T06:23:39.318Z,98303.97
2023-04-13T06:26:17.189Z,98312.34
2023-04-13T06:28:51.022Z,98315.25
2023-04-13T06:31:28.636Z,98311.78
2023-04-13T06:33:59.042Z,98311.69
2023-04-13T06:36:30.321Z,98312.81
2023-04-13T06:38:59.594Z,98324.50
2023-04-13T06:41:27.385Z,98323.91
2023-04-13T06:44:13.476Z,98326.16
2023-04-13T06:46:57.381Z,98334.06
2023-04-13T06:49:25.814Z,98334.75
2023-04-13T06:51:52.478Z,98339.28
2023-04-13T06:54:19.290Z,98330.72
2023-04-13T06:56:56.306Z,98336.31
2023-04-13T06:59:23.041Z,98333.31
2023-04-13T07:01:49.746Z,98336.88
2023-04-13T07:04:16.928Z,98346.69
2023-04-13T07:06:45.624Z,98352.72
2023-04-13T07:09:12.386Z,98346.16
2023-04-13T07:11:41.524Z,98350.13
2023-04-13T07:14:08.184Z,98351.53
2023-04-13T07:16:38.169Z,98352.00
2023-04-13T07:19:04.972Z,98349.88
2023-04-13T07:21:34.281Z,98352.94
2023-04-13T07:24:04.585Z,98361.63
2023-04-13T07:26:32.521Z,98358.22
2023-04-13T07:29:00.150Z,98366.84
2023-04-13T07:31:35.632Z,98364.88
2023-04-13T07:34:02.724Z,98366.88
2023-04-13T07:36:34.697Z,98371.63
2023-04-13T07:39:11.029Z,98368.28
2023-04-13T07:41:41.376Z,98371.53
2023-04-13T07:44:11.356Z,98374.44
2023-04-13T07:46:40.651Z,98379.50
2023-04-13T07:49:07.684Z,98378.72
2023-04-13T07:51:36.579Z,98377.13
2023-04-13T07:54:03.345Z,98372.00
2023-04-13T07:56:32.182Z,98385.38
2023-04-13T07:59:00.731Z,98380.03
2023-04-13T08:01:27.778Z,98381.41
2023-04-13T08:03:56.788Z,98381.00
2023-04-13T08:06:27.504Z,98378.69
2023-04-13T08:08:54.639Z,98379.81
2023-04-13T08:11:21.462Z,98386.03
2023-04-13T08:13:53.792Z,98376.69
2023-04-13T08:16:24.685Z,98385.53
2023-04-13T08:18:53.760Z,98388.22
2023-04-13T08:21:21.559Z,98392.31
2023-04-13T08:23:49.194Z,98387.34
2023-04-13T08:26:18.680Z,98395.69
2023-04-13T08:28:47.878Z,98379.84
2023-04-13T08:31:15.903Z,98385.13
2023-04-13T08:33:49.027Z,98385.28
2023-04-13T08:36:17.494Z,98393.38
2023-04-13T08:38:47.621Z,98392.22
2023-04-13T08:41:14.589Z,98391.38
2023-04-13T08:43:41.838Z,98384.59
2023-04-13T08:46:09.310Z,98381.13
2023-04-13T08:48:59.075Z,98381.69
2023-04-13T08:51:38.587Z,98377.88
2023-04-13T08:54:06.250Z,98391.28
2023-04-13T08:56:46.099Z,98378.84
2023-04-13T08:59:19.897Z,98374.84
2023-04-13T09:01:47.935Z,98381.59
2023-04-13T09:04:18.152Z,98376.06
2023-04-13T09:06:51.091Z,98372.84
2023-04-13T09:09:19.315Z,98377.19
2023-04-13T09:11:47.192Z,98376.59
2023-04-13T09:14:20.200Z,98372.91
2023-04-13T09:16:47.711Z,98371.16
2023-04-13T09:19:33.892Z,98377.88
2023-04-13T09:22:14.360Z,98377.63
2023-04-13T09:24:41.633Z,98378.19
2023-04-13T09:27:21.194Z,98386.78
2023-04-13T09:29:50.558Z,98375.16
2023-04-13T09:32:24.605Z,98379.44
2023-04-13T09:35:06.997Z,98367.88
2023-04-13T09:37:40.120Z,98377.78
2023-04-13T09:40:14.025Z,98375.44
2023-04-13T09:42:42.058Z,98369.31
2023-04-13T09:45:09.637Z,98372.81
2023-04-13T09:47:43.094Z,98368.16
2023-04-13T09:50:18.922Z,98368.94
2023-04-13T09:52:46.975Z,98365.19
2023-04-13T09:55:17.820Z,98364.41
2023-04-13T09:57:44.623Z,98369.81
2023-04-13T10:00:20.872Z,98359.16
2023-04-13T10:02:52.157Z,98368.00
2023-04-13T10:05:19.701Z,98365.91
2023-04-13T10:07:46.983Z,98356.94
2023-04-13T10:10:13.812Z,98360.94
2023-04-13T10:12:46.342Z,98363.19
2023-04-13T10:15:25.238Z,98367.75
2023-04-13T10:18:10.847Z,98368.78
2023-04-13T10:20:37.747Z,98358.38
2023-04-13T10:23:05.153Z,98355.28
2023-04-13T10:25:38.349Z,98358.94
2023-04-13T10:28:09.275Z,98346.47
2023-04-13T10:30:38.526Z,98343.66
2023-04-13T10:33:09.927Z,98349.91
2023-04-13T10:35:43.608Z,98343.38
2023-04-13T10:38:11.621Z,98341.91
2023-04-13T10:40:45.886Z,98344.59
2023-04-13T10:43:12.719Z,98344.47
2023-04-13T10:45:39.394Z,98358.69
2023-04-13T10:48:07.797Z,98342.28
2023-04-13T10:50:34.720Z,98330.19
2023-04-13T10:53:05.769Z,98325.41
2023-04-13T10:55:35.672Z,98327.31
2023-04-13T10:58:03.491Z,98334.88
2023-04-13T11:00:44.596Z,98343.22
2023-04-13T11:03:17.775Z,98342.66
2023-04-13T11:05:49.912Z,98343.41
2023-04-13T11:08:19.279Z,98329.84
2023-04-13T11:10:52.844Z,98331.56
2023-04-13T11:13:19.760Z,98322.06
2023-04-13T11:15:48.203Z,98326.78
2023-04-13T11:18:24.506Z,98336.00
2023-04-13T11:20:51.613Z,98340.38
2023-04-13T11:23:20.608Z,98334.75
2023-04-13T11:26:02.062Z,98339.81
2023-04-13T11:28:43.832Z,98333.22
2023-04-13T11:31:12.111Z,98333.28
2023-04-13T11:33:44.499Z,98334.75
2023-04-13T11:36:11.972Z,98341.59
2023-04-13T11:38:39.882Z,98345.06
2023-04-13T11:41:16.313Z,98338.53
2023-04-13T11:43:46.751Z,98353.28
2023-04-13T11:46:15.361Z,98356.22
2023-04-13T11:48:43.213Z,98361.88
2023-04-13T11:51:11.491Z,98353.94
2023-04-13T11:53:39.510Z,98353.59
2023-04-13T11:56:09.025Z,98353.59
2023-04-13T11:58:36.756Z,98354.47
2023-04-13T12:01:13.812Z,98348.03
2023-04-13T12:06:16.533Z,98360.00
2023-04-13T12:08:46.343Z,98341.53
2023-04-13T12:11:40.399Z,98346.97
2023-04-13T12:14:09.885Z,98346.16
2023-04-13T12:19:13.586Z,98343.38
2023-04-13T12:21:52.689Z,98332.06
2023-04-13T12:24:19.832Z,98340.81
2023-04-13T12:29:16.052Z,98347.50
2023-04-13T12:31:45.534Z,98354.75
2023-04-13T12:34:14.680Z,98353.66
2023-04-13T12:36:41.349Z,98353.50
2023-04-13T12:39:08.426Z,98357.78
2023-04-13T12:41:37.947Z,98364.75
2023-04-13T12:44:04.689Z,98365.41
2023-04-13T12:46:32.373Z,98369.41
2023-04-13T12:48:59.319Z,98372.41
2023-04-13T12:51:29.431Z,98366.78
2023-04-13T12:53:56.104Z,98359.28
2023-04-13T12:56:24.572Z,98372.19
2023-04-13T12:58:51.314Z,98369.47
2023-04-13T13:01:18.249Z,98365.94
2023-04-13T13:03:46.057Z,98372.72
2023-04-13T13:06:12.894Z,98357.25
2023-04-13T13:08:42.699Z,98351.84
2023-04-13T13:11:09.374Z,98356.19
2023-04-13T13:13:36.121Z,98351.00
2023-04-13T13:16:03.653Z,98366.56
2023-04-13T13:18:46.558Z,98360.31
2023-04-13T13:21:17.322Z,98362.50
2023-04-13T13:23:44.102Z,98352.97
2023-04-13T13:26:23.108Z,98363.59
2023-04-13T13:28:52.053Z,98359.28
2023-04-13T13:31:19.592Z,98355.28
2023-04-13T13:33:46.759Z,98363.13
2023-04-13T13:36:14.908Z,98361.03
2023-04-13T13:38:43.133Z,98366.00
2023-04-13T13:41:10.101Z,98369.75
2023-04-13T13:43:37.405Z,98372.38
2023-04-13T13:46:05.870Z,98365.56
2023-04-13T13:48:34.608Z,98354.97
2023-04-13T13:51:11.171Z,98343.34
2023-04-13T13:53:38.576Z,98346.66
2023-04-13T13:56:05.566Z,98336.28
2023-04-13T13:58:32.407Z,98336.69
2023-04-13T14:00:59.580Z,98334.00
2023-04-13T14:03:29.743Z,98337.84
2023-04-13T14:05:56.838Z,98345.50
2023-04-13T14:08:23.922Z,98343.19
2023-04-13T14:10:50.899Z,98341.19
2023-04-13T14:13:20.008Z,98338.56
2023-04-13T14:15:47.467Z,98336.06
2023-04-13T14:18:14.371Z,98348.13
2023-04-13T14:20:41.068Z,98336.72
2023-04-13T14:23:09.565Z,98332.44
2023-04-13T14:25:37.630Z,98345.84
2023-04-13T14:28:04.392Z,98342.94
2023-04-13T14:30:31.311Z,98347.00
2023-04-13T14:32:58.017Z,98349.78
2023-04-13T14:35:24.921Z,98352.38
2023-04-13T14:37:52.913Z,98353.34
2023-04-13T14:40:22.559Z,98352.06
2023-04-13T14:42:55.058Z,98355.34
2023-04-13T14:45:22.192Z,98350.16
2023-04-13T14:47:49.220Z,98343.66
2023-04-13T14:50:16.747Z,98337.31
2023-04-13T14:52:44.857Z,98340.44
2023-04-13T14:55:12.190Z,98337.53
2023-04-13T14:57:39.562Z,98334.78
2023-04-13T15:00:38.865Z,98336.66
2023-04-13T15:03:09.715Z,98340.75
2023-04-13T15:05:41.578Z,98350.91
2023-04-13T15:08:08.658Z,98346.50
2023-04-13T15:10:35.406Z,98353.41
2023-04-13T15:13:07.256Z,98345.78
2023-04-13T15:15:35.955Z,98347.84
2023-04-13T15:18:03.628Z,98350.41
2023-04-13T15:20:30.643Z,98354.72
2023-04-13T15:23:00.658Z,98358.63
2023-04-13T15:25:29.919Z,98356.84
2023-04-13T15:27:59.161Z,98353.16
2023-04-13T15:30:27.498Z,98358.00
2023-04-13T15:33:02.334Z,98363.81
2023-04-13T15:35:29.824Z,98354.44
2023-04-13T15:37:57.168Z,98362.38
2023-04-13T15:40:28.088Z,98355.81
2023-04-13T15:42:54.952Z,98356.88
2023-04-13T15:45:21.600Z,98354.69
2023-04-13T15:47:48.384Z,98358.56
2023-04-13T15:50:15.200Z,98355.66
2023-04-13T15:52:42.551Z,98352.81
2023-04-13T15:55:10.089Z,98355.59
2023-04-13T15:57:37.244Z,98357.50
2023-04-13T16:00:05.110Z,98344.19
2023-04-13T16:02:32.287Z,98347.91
2023-04-13T16:04:59.193Z,98335.09
2023-04-13T16:07:26.190Z,98335.66
2023-04-13T16:09:58.702Z,98336.31
2023-04-13T16:12:31.411Z,98331.19
2023-04-13T16:14:59.498Z,98328.75
2023-04-13T16:17:33.216Z,98329.47
2023-04-13T16:20:06.433Z,98326.66
2023-04-13T16:22:35.054Z,98329.34
2023-04-13T16:25:05.482Z,98331.06
2023-04-13T16:27:32.578Z,98337.56
2023-04-13T16:29:59.773Z,98350.22
2023-04-13T16:32:27.236Z,98349.56
2023-04-13T16:34:53.974Z,98366.81
2023-04-13T16:37:20.999Z,98365.81
2023-04-13T16:39:48.687Z,98370.13
2023-04-13T16:42:17.504Z,98376.66
2023-04-13T16:44:44.614Z,98377.56
2023-04-13T16:47:11.579Z,98373.09
2023-04-13T16:49:38.247Z,98385.53
2023-04-13T16:52:04.922Z,98383.91
2023-04-13T16:54:31.683Z,98381.63
2023-04-13T16:56:58.357Z,98373.31
2023-04-13T16:59:25.096Z,98382.84
2023-04-13T17:01:51.908Z,98368.69
2023-04-13T17:04:18.787Z,98372.88
2023-04-13T17:06:48.685Z,98367.44
2023-04-13T17:09:17.368Z,98364.88
2023-04-13T17:11:43.996Z,98365.13
2023-04-13T17:14:10.902Z,98364.31
2023-04-13T17:16:37.624Z,98365.84
2023-04-13T17:19:04.603Z,98375.06
2023-04-13T17:21:31.348Z,98378.38
2023-04-13T17:23:58.071Z,98367.09
2023-04-13T17:26:24.820Z,98379.38
2023-04-13T17:28:51.465Z,98379.50
2023-04-13T17:31:18.422Z,98381.38
2023-04-13T17:33:45.617Z,98372.91
2023-04-13T17:36:12.282Z,98372.78
2023-04-13T17:38:38.923Z,98367.78
2023-04-13T17:41:06.820Z,98365.25
2023-04-13T17:43:33.544Z,98371.97
2023-04-13T17:46:00.326Z,98379.88
2023-04-13T17:48:27.149Z,98376.53
2023-04-13T17:50:53.849Z,98375.44
2023-04-13T17:53:23.964Z,98376.81
2023-04-13T17:55:50.863Z,98363.97
2023-04-13T17:58:17.584Z,98373.59
2023-04-13T18:00:44.529Z,98379.78
2023-04-13T18:03:11.865Z,98389.97
2023-04-13T18:05:42.362Z,98386.84
2023-04-13T18:08:09.025Z,98397.84
2023-04-13T18:10:35.871Z,98399.81
2023-04-13T18:13:02.608Z,98403.88
2023-04-13T18:15:29.356Z,98395.53
2023-04-13T18:17:57.710Z,98391.00
2023-04-13T18:20:24.993Z,98391.22
2023-04-13T18:22:51.665Z,98395.88
2023-04-13T18:25:20.731Z,98400.53
2023-04-13T18:27:49.705Z,98397.88
2023-04-13T18:30:19.560Z,98407.13
2023-04-13T18:32:47.074Z,98414.91
2023-04-13T18:35:14.031Z,98418.00
2023-04-13T18:37:40.932Z,98404.44
2023-04-13T18:40:08.515Z,98392.41
2023-04-13T18:42:39.980Z,98402.97
2023-04-13T18:45:10.381Z,98403.78
2023-04-13T18:47:37.113Z,98400.53
2023-04-13T18:50:05.917Z,98405.84
2023-04-13T18:52:35.822Z,98399.56
2023-04-13T18:55:02.588Z,98386.38
2023-04-13T18:57:29.289Z,98376.53
2023-04-13T18:59:57.325Z,98382.41
2023-04-13T19:02:24.452Z,98377.56
2023-04-13T19:04:51.312Z,98363.28
2023-04-13T19:07:18.491Z,98362.81
2023-04-13T19:09:45.319Z,98367.81
2023-04-13T19:12:14.177Z,98356.78
2023-04-13T19:14:40.952Z,98368.03
2023-04-13T19:17:07.767Z,98372.22
2023-04-13T19:19:34.484Z,98375.00
2023-04-13T19:22:01.166Z,98371.84
2023-04-13T19:24:27.886Z,98380.34
2023-04-13T19:26:55.970Z,98379.97
2023-04-13T19:29:23.602Z,98376.53
2023-04-13T19:31:50.311Z,98364.06
2023-04-13T19:34:16.989Z,98367.69
2023-04-13T19:36:43.854Z,98363.84
2023-04-13T19:39:10.694Z,98363.38
2023-04-13T19:41:38.794Z,98379.84
2023-04-13T19:44:06.080Z,98368.59
2023-04-13T19:46:32.999Z,98371.75
2023-04-13T19:49:01.936Z,98359.00
2023-04-13T19:51:29.777Z,98348.06
2023-04-13T19:53:57.801Z,98346.47
2023-04-13T19:56:25.313Z,98341.47
2023-04-13T19:58:52.212Z,98333.59
2023-04-13T20:01:21.128Z,98322.69
2023-04-13T20:03:48.365Z,98316.31
2023-04-13T20:06:16.062Z,98315.59
2023-04-13T20:08:44.143Z,98320.94
2023-04-13T20:11:12.862Z,98308.31
2023-04-13T20:13:40.083Z,98320.03
2023-04-13T20:16:07.397Z,98313.75
2023-04-13T20:18:34.102Z,98311.56
2023-04-13T20:21:00.795Z,98319.09
2023-04-13T20:23:29.748Z,98312.38
2023-04-13T20:25:56.360Z,98311.13
2023-04-13T20:28:23.249Z,98297.66
2023-04-13T20:30:49.936Z,98304.72
2023-04-13T20:33:16.704Z,98305.91
2023-04-13T20:35:43.342Z,98303.34
2023-04-13T20:38:10.103Z,98298.84
2023-04-13T20:40:37.514Z,98298.13
2023-04-13T20:43:06.258Z,98295.25
2023-04-13T20:45:33.112Z,98293.97
2023-04-13T20:50:50.757Z,98294.31
2023-04-13T20:53:17.819Z,98288.28
2023-04-13T20:55:44.750Z,98288.44
2023-04-13T20:58:11.478Z,98280.31
2023-04-13T21:00:38.558Z,98289.13
2023-04-13T21:03:09.003Z,98286.91
2023-04-13T21:05:36.308Z,98279.38
2023-04-13T21:08:03.176Z,98273.34
2023-04-13T21:10:30.025Z,98261.66
2023-04-13T21:12:56.772Z,98272.31
2023-04-13T21:15:23.526Z,98272.09
2023-04-13T21:17:50.273Z,98272.69
2023-04-13T21:20:19.015Z,98272.69
2023-04-13T21:22:45.759Z,98284.03
2023-04-13T21:25:12.550Z,98275.09
2023-04-13T21:27:42.221Z,98275.09
2023-04-13T21:30:09.456Z,98267.94
2023-04-13T21:32:36.207Z,98264.44
2023-04-13T21:35:03.124Z,98263.50
2023-04-13T21:37:31.800Z,98253.56
2023-04-13T21:40:23.420Z,98255.19
2023-04-13T21:42:50.341Z,98247.91
2023-04-13T21:45:16.958Z,98250.19
2023-04-13T21:47:43.621Z,98249.03
2023-04-13T21:50:10.608Z,98251.84
2023-04-13T21:52:37.205Z,98252.88
2023-04-13T21:55:04.150Z,98239.78
2023-04-13T21:57:30.785Z,98233.53
2023-04-13T21:59:57.409Z,98229.22
2023-04-13T22:02:24.586Z,98227.88
2023-04-13T22:04:51.559Z,98228.09
2023-04-13T22:07:22.084Z,98214.44
2023-04-13T22:09:52.689Z,98199.72
2023-04-13T22:12:19.292Z,98180.13
2023-04-13T22:14:46.124Z,98173.19
2023-04-13T22:17:14.182Z,98167.06
2023-04-13T22:19:41.639Z,98167.97
2023-04-13T22:22:08.306Z,98165.31
2023-04-13T22:24:34.985Z,98169.59
2023-04-13T22:27:03.358Z,98163.72
2023-04-13T22:29:30.921Z,98155.94
2023-04-13T22:31:59.321Z,98151.91
2023-04-13T22:34:28.953Z,98165.44
2023-04-13T22:36:55.603Z,98160.47
2023-04-13T22:39:22.242Z,98155.25
2023-04-13T22:41:48.869Z,98147.25
2023-04-13T22:44:15.731Z,98146.00
2023-04-13T22:46:42.393Z,98147.50
2023-04-13T22:49:09.066Z,98140.31
2023-04-13T22:51:39.985Z,98148.31
2023-04-13T22:54:06.914Z,98141.81
2023-04-13T22:56:33.503Z,98141.94
2023-04-13T22:59:00.328Z,98135.56
2023-04-13T23:01:27.208Z,98136.16
2023-04-13T23:03:54.106Z,98139.03
2023-04-13T23:06:20.775Z,98139.50
2023-04-13T23:08:47.561Z,98132.66
2023-04-13T23:11:14.253Z,98130.34
2023-04-13T23:13:41.740Z,98126.28
2023-04-13T23:16:08.488Z,98128.03
2023-04-13T23:18:35.192Z,98121.44
2023-04-13T23:21:09.796Z,98128.63
2023-04-13T23:23:37.157Z,98126.50
2023-04-13T23:26:03.894Z,98128.03
2023-04-13T23:28:30.669Z,98135.91
2023-04-13T23:31:05.111Z,98129.28
2023-04-13T23:33:32.741Z,98131.88
2023-04-13T23:35:59.384Z,98124.44
2023-04-13T23:38:26.012Z,98124.69
2023-04-13T23:40:54.696Z,98125.13
2023-04-13T23:43:21.725Z,98127.56
2023-04-13T23:45:52.219Z,98127.78
2023-04-13T23:48:19.837Z,98122.59
2023-04-13T23:50:47.279Z,98116.91
2023-04-13T23:53:14.415Z,98110.09
2023-04-13T23:55:41.079Z,98105.34
2023-04-13T23:58:08.101Z,98109.75
